sensor_id;sensor_type;location;lat;lon;timestamp;temperature;humidity
49579;DHT22;35483;50.828;3.228;2023-02-26T00:00:30;2.20;96.70
49579;DHT22;35483;50.828;3.228;2023-02-26T00:02:56;2.20;96.70
49579;DHT22;35483;50.828;3.228;2023-02-26T00:05:21;2.10;96.60
49579;DHT22;35483;50.828;3.228;2023-02-26T00:07:47;2.10;96.70
49579;DHT22;35483;50.828;3.228;2023-02-26T00:10:13;2.10;96.70
49579;DHT22;35483;50.828;3.228;2023-02-26T00:12:41;2.10;96.70
49579;DHT22;35483;50.828;3.228;2023-02-26T00:15:09;2.10;96.70
49579;DHT22;35483;50.828;3.228;2023-02-26T00:20:42;2.10;96.70
49579;DHT22;35483;50.828;3.228;2023-02-26T00:23:11;2.00;96.70
49579;DHT22;35483;50.828;3.228;2023-02-26T00:25:39;2.00;96.70
49579;DHT22;35483;50.828;3.228;2023-02-26T00:28:05;2.00;96.70
49579;DHT22;35483;50.828;3.228;2023-02-26T00:30:32;2.00;96.80
49579;DHT22;35483;50.828;3.228;2023-02-26T00:32:59;2.00;97.00
49579;DHT22;35483;50.828;3.228;2023-02-26T00:35:25;1.90;96.80
49579;DHT22;35483;50.828;3.228;2023-02-26T00:42:54;1.90;96.80
49579;DHT22;35483;50.828;3.228;2023-02-26T00:45:21;1.90;96.80
49579;DHT22;35483;50.828;3.228;2023-02-26T00:50:24;1.90;96.80
49579;DHT22;35483;50.828;3.228;2023-02-26T00:53:16;1.90;96.80
49579;DHT22;35483;50.828;3.228;2023-02-26T00:55:45;2.00;96.70
49579;DHT22;35483;50.828;3.228;2023-02-26T00:58:10;1.90;96.90
49579;DHT22;35483;50.828;3.228;2023-02-26T01:00:36;1.90;96.90
49579;DHT22;35483;50.828;3.228;2023-02-26T01:03:02;1.90;96.90
49579;DHT22;35483;50.828;3.228;2023-02-26T01:05:28;2.00;96.90
49579;DHT22;35483;50.828;3.228;2023-02-26T01:08:04;2.00;96.90
49579;DHT22;35483;50.828;3.228;2023-02-26T01:10:33;2.00;96.80
49579;DHT22;35483;50.828;3.228;2023-02-26T01:12:59;2.00;96.90
49579;DHT22;35483;50.828;3.228;2023-02-26T01:15:26;2.00;96.90
49579;DHT22;35483;50.828;3.228;2023-02-26T01:18:04;2.00;96.90
49579;DHT22;35483;50.828;3.228;2023-02-26T01:20:37;2.00;96.80
49579;DHT22;35483;50.828;3.228;2023-02-26T01:23:08;2.00;96.90
49579;DHT22;35483;50.828;3.228;2023-02-26T01:25:44;2.00;96.90
49579;DHT22;35483;50.828;3.228;2023-02-26T01:28:11;2.00;96.90
49579;DHT22;35483;50.828;3.228;2023-02-26T01:30:38;1.80;96.70
49579;DHT22;35483;50.828;3.228;2023-02-26T01:33:40;1.80;97.10
49579;DHT22;35483;50.828;3.228;2023-02-26T01:36:16;1.90;96.80
49579;DHT22;35483;50.828;3.228;2023-02-26T01:41:38;1.90;97.10
49579;DHT22;35483;50.828;3.228;2023-02-26T01:49:33;1.80;97.00
49579;DHT22;35483;50.828;3.228;2023-02-26T01:52:03;1.80;97.10
49579;DHT22;35483;50.828;3.228;2023-02-26T01:54:36;1.80;97.00
49579;DHT22;35483;50.828;3.228;2023-02-26T01:57:13;1.90;97.10
49579;DHT22;35483;50.828;3.228;2023-02-26T01:59:44;1.90;97.10
49579;DHT22;35483;50.828;3.228;2023-02-26T02:02:13;1.90;97.10
49579;DHT22;35483;50.828;3.228;2023-02-26T02:04:41;2.00;97.00
49579;DHT22;35483;50.828;3.228;2023-02-26T02:07:09;2.10;96.90
49579;DHT22;35483;50.828;3.228;2023-02-26T02:09:35;2.20;96.80
49579;DHT22;35483;50.828;3.228;2023-02-26T02:12:34;2.30;96.70
49579;DHT22;35483;50.828;3.228;2023-02-26T02:15:12;2.40;96.50
49579;DHT22;35483;50.828;3.228;2023-02-26T02:18:01;2.50;96.60
49579;DHT22;35483;50.828;3.228;2023-02-26T02:20:58;2.70;96.40
49579;DHT22;35483;50.828;3.228;2023-02-26T02:23:42;2.80;96.40
49579;DHT22;35483;50.828;3.228;2023-02-26T02:31:45;3.10;96.30
49579;DHT22;35483;50.828;3.228;2023-02-26T02:34:22;3.10;96.30
49579;DHT22;35483;50.828;3.228;2023-02-26T02:37:00;3.30;96.40
49579;DHT22;35483;50.828;3.228;2023-02-26T02:39:31;3.20;95.10
49579;DHT22;35483;50.828;3.228;2023-02-26T02:42:06;3.30;96.30
49579;DHT22;35483;50.828;3.228;2023-02-26T02:44:35;3.40;96.20
49579;DHT22;35483;50.828;3.228;2023-02-26T02:47:03;3.40;94.90
49579;DHT22;35483;50.828;3.228;2023-02-26T02:49:36;3.40;96.30
49579;DHT22;35483;50.828;3.228;2023-02-26T02:54:57;3.60;96.10
49579;DHT22;35483;50.828;3.228;2023-02-26T02:57:33;3.60;96.20
49579;DHT22;35483;50.828;3.228;2023-02-26T03:00:01;3.70;96.30
49579;DHT22;35483;50.828;3.228;2023-02-26T03:02:43;3.60;95.70
49579;DHT22;35483;50.828;3.228;2023-02-26T03:05:09;3.70;95.70
49579;DHT22;35483;50.828;3.228;2023-02-26T03:07:45;3.70;96.10
49579;DHT22;35483;50.828;3.228;2023-02-26T03:10:11;3.80;96.10
49579;DHT22;35483;50.828;3.228;2023-02-26T03:12:37;3.80;96.50
49579;DHT22;35483;50.828;3.228;2023-02-26T03:15:03;3.80;96.00
49579;DHT22;35483;50.828;3.228;2023-02-26T03:26:01;4.00;95.50
49579;DHT22;35483;50.828;3.228;2023-02-26T03:28:35;4.00;95.90
49579;DHT22;35483;50.828;3.228;2023-02-26T03:31:16;3.90;95.90
49579;DHT22;35483;50.828;3.228;2023-02-26T03:36:47;3.90;95.90
49579;DHT22;35483;50.828;3.228;2023-02-26T03:39:28;3.90;96.10
49579;DHT22;35483;50.828;3.228;2023-02-26T03:42:08;3.90;96.00
49579;DHT22;35483;50.828;3.228;2023-02-26T03:44:43;3.90;95.70
49579;DHT22;35483;50.828;3.228;2023-02-26T03:47:13;3.90;95.90
49579;DHT22;35483;50.828;3.228;2023-02-26T03:49:47;3.90;95.90
49579;DHT22;35483;50.828;3.228;2023-02-26T03:52:14;3.80;95.90
49579;DHT22;35483;50.828;3.228;2023-02-26T03:54:44;3.80;96.10
49579;DHT22;35483;50.828;3.228;2023-02-26T03:57:11;3.90;95.80
49579;DHT22;35483;50.828;3.228;2023-02-26T03:59:37;3.90;96.00
49579;DHT22;35483;50.828;3.228;2023-02-26T04:02:26;3.90;96.00
49579;DHT22;35483;50.828;3.228;2023-02-26T04:04:55;3.90;95.50
49579;DHT22;35483;50.828;3.228;2023-02-26T04:07:22;3.80;95.90
49579;DHT22;35483;50.828;3.228;2023-02-26T04:09:50;3.80;95.90
49579;DHT22;35483;50.828;3.228;2023-02-26T04:12:21;3.70;96.00
49579;DHT22;35483;50.828;3.228;2023-02-26T04:14:48;3.70;96.00
49579;DHT22;35483;50.828;3.228;2023-02-26T04:17:14;3.60;96.10
49579;DHT22;35483;50.828;3.228;2023-02-26T04:19:40;3.60;96.10
49579;DHT22;35483;50.828;3.228;2023-02-26T04:22:05;3.60;96.10
49579;DHT22;35483;50.828;3.228;2023-02-26T04:24:31;3.60;96.10
49579;DHT22;35483;50.828;3.228;2023-02-26T04:26:57;3.70;96.10
49579;DHT22;35483;50.828;3.228;2023-02-26T04:29:22;3.60;96.00
49579;DHT22;35483;50.828;3.228;2023-02-26T04:31:48;3.70;96.10
49579;DHT22;35483;50.828;3.228;2023-02-26T04:34:14;3.70;96.10
49579;DHT22;35483;50.828;3.228;2023-02-26T04:36:39;3.70;96.10
49579;DHT22;35483;50.828;3.228;2023-02-26T04:39:05;3.70;96.10
49579;DHT22;35483;50.828;3.228;2023-02-26T04:41:31;3.70;95.90
49579;DHT22;35483;50.828;3.228;2023-02-26T04:43:57;3.80;95.80
49579;DHT22;35483;50.828;3.228;2023-02-26T04:46:22;3.80;95.80
49579;DHT22;35483;50.828;3.228;2023-02-26T04:48:48;3.70;95.80
49579;DHT22;35483;50.828;3.228;2023-02-26T04:51:14;3.70;95.80
49579;DHT22;35483;50.828;3.228;2023-02-26T04:53:39;3.70;95.90
49579;DHT22;35483;50.828;3.228;2023-02-26T04:56:05;3.60;95.80
49579;DHT22;35483;50.828;3.228;2023-02-26T04:58:32;3.60;95.90
49579;DHT22;35483;50.828;3.228;2023-02-26T05:00:58;3.60;95.90
49579;DHT22;35483;50.828;3.228;2023-02-26T05:03:23;3.50;95.80
49579;DHT22;35483;50.828;3.228;2023-02-26T05:05:49;3.40;95.80
49579;DHT22;35483;50.828;3.228;2023-02-26T05:08:15;3.30;95.80
49579;DHT22;35483;50.828;3.228;2023-02-26T05:10:41;3.20;95.70
49579;DHT22;35483;50.828;3.228;2023-02-26T05:13:06;3.20;95.80
49579;DHT22;35483;50.828;3.228;2023-02-26T05:15:32;3.10;95.50
49579;DHT22;35483;50.828;3.228;2023-02-26T05:17:58;3.10;95.70
49579;DHT22;35483;50.828;3.228;2023-02-26T05:20:24;3.10;95.40
49579;DHT22;35483;50.828;3.228;2023-02-26T05:22:50;3.00;95.60
49579;DHT22;35483;50.828;3.228;2023-02-26T05:25:15;3.00;95.30
49579;DHT22;35483;50.828;3.228;2023-02-26T05:27:57;3.00;95.60
49579;DHT22;35483;50.828;3.228;2023-02-26T05:30:23;2.90;95.40
49579;DHT22;35483;50.828;3.228;2023-02-26T05:32:49;2.90;95.40
49579;DHT22;35483;50.828;3.228;2023-02-26T05:35:14;2.80;94.80
49579;DHT22;35483;50.828;3.228;2023-02-26T05:37:40;2.80;95.10
49579;DHT22;35483;50.828;3.228;2023-02-26T05:40:08;2.80;95.20
49579;DHT22;35483;50.828;3.228;2023-02-26T05:42:37;2.70;94.70
49579;DHT22;35483;50.828;3.228;2023-02-26T05:45:04;2.70;94.90
49579;DHT22;35483;50.828;3.228;2023-02-26T05:47:32;2.70;95.00
49579;DHT22;35483;50.828;3.228;2023-02-26T05:49:58;2.70;94.70
49579;DHT22;35483;50.828;3.228;2023-02-26T05:52:23;2.60;94.60
49579;DHT22;35483;50.828;3.228;2023-02-26T05:54:49;2.60;94.90
49579;DHT22;35483;50.828;3.228;2023-02-26T05:57:15;2.50;94.50
49579;DHT22;35483;50.828;3.228;2023-02-26T05:59:40;2.50;94.60
49579;DHT22;35483;50.828;3.228;2023-02-26T06:02:06;2.50;94.40
49579;DHT22;35483;50.828;3.228;2023-02-26T06:04:32;2.50;94.70
49579;DHT22;35483;50.828;3.228;2023-02-26T06:06:58;2.50;94.40
49579;DHT22;35483;50.828;3.228;2023-02-26T06:09:24;2.50;94.40
49579;DHT22;35483;50.828;3.228;2023-02-26T06:11:50;2.50;94.10
49579;DHT22;35483;50.828;3.228;2023-02-26T06:14:15;2.40;94.30
49579;DHT22;35483;50.828;3.228;2023-02-26T06:16:42;2.40;94.30
49579;DHT22;35483;50.828;3.228;2023-02-26T06:19:08;2.40;94.50
49579;DHT22;35483;50.828;3.228;2023-02-26T06:21:33;2.40;94.20
49579;DHT22;35483;50.828;3.228;2023-02-26T06:23:59;2.40;94.50
49579;DHT22;35483;50.828;3.228;2023-02-26T06:26:25;2.30;94.50
49579;DHT22;35483;50.828;3.228;2023-02-26T06:28:50;2.30;94.50
49579;DHT22;35483;50.828;3.228;2023-02-26T06:31:16;2.30;94.70
49579;DHT22;35483;50.828;3.228;2023-02-26T06:33:41;2.30;94.30
49579;DHT22;35483;50.828;3.228;2023-02-26T06:36:07;2.30;94.80
49579;DHT22;35483;50.828;3.228;2023-02-26T06:38:33;2.20;94.40
49579;DHT22;35483;50.828;3.228;2023-02-26T06:40:59;2.20;94.50
49579;DHT22;35483;50.828;3.228;2023-02-26T06:43:24;2.20;94.60
49579;DHT22;35483;50.828;3.228;2023-02-26T06:45:50;2.20;94.50
49579;DHT22;35483;50.828;3.228;2023-02-26T06:48:16;2.20;94.60
49579;DHT22;35483;50.828;3.228;2023-02-26T06:50:42;2.20;94.40
49579;DHT22;35483;50.828;3.228;2023-02-26T06:53:08;2.20;94.20
49579;DHT22;35483;50.828;3.228;2023-02-26T06:55:34;2.20;94.60
49579;DHT22;35483;50.828;3.228;2023-02-26T06:58:00;2.20;94.20
49579;DHT22;35483;50.828;3.228;2023-02-26T07:00:25;2.10;94.30
49579;DHT22;35483;50.828;3.228;2023-02-26T07:02:52;2.10;94.40
49579;DHT22;35483;50.828;3.228;2023-02-26T07:05:17;2.10;94.20
49579;DHT22;35483;50.828;3.228;2023-02-26T07:07:43;2.10;94.70
49579;DHT22;35483;50.828;3.228;2023-02-26T07:10:10;2.10;94.30
49579;DHT22;35483;50.828;3.228;2023-02-26T07:12:36;2.10;94.40
49579;DHT22;35483;50.828;3.228;2023-02-26T07:15:04;2.20;94.40
49579;DHT22;35483;50.828;3.228;2023-02-26T07:17:30;2.20;94.20
49579;DHT22;35483;50.828;3.228;2023-02-26T07:19:56;2.20;94.50
49579;DHT22;35483;50.828;3.228;2023-02-26T07:22:22;2.20;94.00
49579;DHT22;35483;50.828;3.228;2023-02-26T07:24:48;2.20;94.30
49579;DHT22;35483;50.828;3.228;2023-02-26T07:27:14;2.20;94.10
49579;DHT22;35483;50.828;3.228;2023-02-26T07:29:40;2.20;94.00
49579;DHT22;35483;50.828;3.228;2023-02-26T07:32:06;2.30;94.40
49579;DHT22;35483;50.828;3.228;2023-02-26T07:34:33;2.30;94.00
49579;DHT22;35483;50.828;3.228;2023-02-26T07:36:58;2.30;94.30
49579;DHT22;35483;50.828;3.228;2023-02-26T07:39:25;2.40;94.00
49579;DHT22;35483;50.828;3.228;2023-02-26T07:41:51;2.40;94.00
49579;DHT22;35483;50.828;3.228;2023-02-26T07:44:17;2.40;93.80
49579;DHT22;35483;50.828;3.228;2023-02-26T07:46:43;2.50;93.70
49579;DHT22;35483;50.828;3.228;2023-02-26T07:49:09;2.50;93.60
49579;DHT22;35483;50.828;3.228;2023-02-26T07:51:34;2.50;93.60
49579;DHT22;35483;50.828;3.228;2023-02-26T07:54:01;2.60;93.70
49579;DHT22;35483;50.828;3.228;2023-02-26T07:56:27;2.60;93.80
49579;DHT22;35483;50.828;3.228;2023-02-26T07:58:53;2.60;93.70
49579;DHT22;35483;50.828;3.228;2023-02-26T08:01:19;2.70;93.60
49579;DHT22;35483;50.828;3.228;2023-02-26T08:03:44;2.70;93.50
49579;DHT22;35483;50.828;3.228;2023-02-26T08:06:10;2.80;93.50
49579;DHT22;35483;50.828;3.228;2023-02-26T08:08:36;2.70;92.90
49579;DHT22;35483;50.828;3.228;2023-02-26T08:11:01;2.80;93.30
49579;DHT22;35483;50.828;3.228;2023-02-26T08:13:27;2.80;93.10
49579;DHT22;35483;50.828;3.228;2023-02-26T08:15:53;2.90;93.00
49579;DHT22;35483;50.828;3.228;2023-02-26T08:18:19;2.90;92.50
49579;DHT22;35483;50.828;3.228;2023-02-26T08:20:45;2.90;92.40
49579;DHT22;35483;50.828;3.228;2023-02-26T08:23:11;3.10;93.40
49579;DHT22;35483;50.828;3.228;2023-02-26T08:25:37;3.10;93.10
49579;DHT22;35483;50.828;3.228;2023-02-26T08:28:04;3.10;92.40
49579;DHT22;35483;50.828;3.228;2023-02-26T08:30:30;3.10;92.30
49579;DHT22;35483;50.828;3.228;2023-02-26T08:32:56;3.10;92.60
49579;DHT22;35483;50.828;3.228;2023-02-26T08:35:23;3.10;92.60
49579;DHT22;35483;50.828;3.228;2023-02-26T08:37:49;3.20;92.40
49579;DHT22;35483;50.828;3.228;2023-02-26T08:40:15;3.20;92.20
49579;DHT22;35483;50.828;3.228;2023-02-26T08:42:41;3.20;91.70
49579;DHT22;35483;50.828;3.228;2023-02-26T08:45:07;3.20;92.00
49579;DHT22;35483;50.828;3.228;2023-02-26T08:47:33;3.40;92.40
49579;DHT22;35483;50.828;3.228;2023-02-26T08:49:58;3.40;92.20
49579;DHT22;35483;50.828;3.228;2023-02-26T08:52:25;3.40;91.30
49579;DHT22;35483;50.828;3.228;2023-02-26T08:54:51;3.40;92.20
49579;DHT22;35483;50.828;3.228;2023-02-26T08:57:17;3.50;91.90
49579;DHT22;35483;50.828;3.228;2023-02-26T08:59:43;3.50;92.00
49579;DHT22;35483;50.828;3.228;2023-02-26T09:02:12;3.60;91.40
49579;DHT22;35483;50.828;3.228;2023-02-26T09:04:38;3.60;90.20
49579;DHT22;35483;50.828;3.228;2023-02-26T09:07:04;3.70;92.00
49579;DHT22;35483;50.828;3.228;2023-02-26T09:09:30;3.70;92.20
49579;DHT22;35483;50.828;3.228;2023-02-26T09:11:55;3.80;91.90
49579;DHT22;35483;50.828;3.228;2023-02-26T09:14:21;3.80;91.60
49579;DHT22;35483;50.828;3.228;2023-02-26T09:16:47;3.70;90.60
49579;DHT22;35483;50.828;3.228;2023-02-26T09:19:13;3.80;90.50
49579;DHT22;35483;50.828;3.228;2023-02-26T09:21:38;3.80;91.80
49579;DHT22;35483;50.828;3.228;2023-02-26T09:24:04;3.90;91.20
49579;DHT22;35483;50.828;3.228;2023-02-26T09:26:30;3.90;91.10
49579;DHT22;35483;50.828;3.228;2023-02-26T09:28:56;3.90;87.20
49579;DHT22;35483;50.828;3.228;2023-02-26T09:31:22;3.90;88.10
49579;DHT22;35483;50.828;3.228;2023-02-26T09:33:48;4.00;90.10
49579;DHT22;35483;50.828;3.228;2023-02-26T09:36:14;4.00;88.30
49579;DHT22;35483;50.828;3.228;2023-02-26T09:38:40;4.00;90.00
49579;DHT22;35483;50.828;3.228;2023-02-26T09:41:20;4.10;90.30
49579;DHT22;35483;50.828;3.228;2023-02-26T09:44:24;4.10;83.60
49579;DHT22;35483;50.828;3.228;2023-02-26T09:46:58;4.20;88.20
49579;DHT22;35483;50.828;3.228;2023-02-26T09:49:46;4.20;86.30
49579;DHT22;35483;50.828;3.228;2023-02-26T09:54:59;4.20;79.20
49579;DHT22;35483;50.828;3.228;2023-02-26T09:57:34;4.20;84.90
49579;DHT22;35483;50.828;3.228;2023-02-26T10:00:03;4.30;82.10
49579;DHT22;35483;50.828;3.228;2023-02-26T10:05:32;4.30;72.30
49579;DHT22;35483;50.828;3.228;2023-02-26T10:08:04;4.40;82.00
49579;DHT22;35483;50.828;3.228;2023-02-26T10:10:48;4.40;83.20
49579;DHT22;35483;50.828;3.228;2023-02-26T10:13:54;4.40;84.60
49579;DHT22;35483;50.828;3.228;2023-02-26T10:16:24;4.30;80.00
49579;DHT22;35483;50.828;3.228;2023-02-26T10:18:54;4.40;82.30
49579;DHT22;35483;50.828;3.228;2023-02-26T10:21:43;4.40;81.90
49579;DHT22;35483;50.828;3.228;2023-02-26T10:24:54;4.50;83.20
49579;DHT22;35483;50.828;3.228;2023-02-26T10:27:37;4.50;76.00
49579;DHT22;35483;50.828;3.228;2023-02-26T10:30:20;4.50;76.70
49579;DHT22;35483;50.828;3.228;2023-02-26T10:33:06;4.50;84.00
49579;DHT22;35483;50.828;3.228;2023-02-26T10:35:44;4.60;81.90
49579;DHT22;35483;50.828;3.228;2023-02-26T10:38:14;4.60;83.30
49579;DHT22;35483;50.828;3.228;2023-02-26T10:41:22;4.70;84.90
49579;DHT22;35483;50.828;3.228;2023-02-26T10:44:12;4.70;81.50
49579;DHT22;35483;50.828;3.228;2023-02-26T10:52:27;4.80;85.20
49579;DHT22;35483;50.828;3.228;2023-02-26T10:57:41;4.90;79.30
49579;DHT22;35483;50.828;3.228;2023-02-26T11:00:18;4.80;72.10
49579;DHT22;35483;50.828;3.228;2023-02-26T11:02:47;4.80;73.00
49579;DHT22;35483;50.828;3.228;2023-02-26T11:05:25;4.80;72.70
49579;DHT22;35483;50.828;3.228;2023-02-26T11:13:17;5.00;82.70
49579;DHT22;35483;50.828;3.228;2023-02-26T11:15:47;4.90;81.10
49579;DHT22;35483;50.828;3.228;2023-02-26T11:18:20;5.00;81.90
49579;DHT22;35483;50.828;3.228;2023-02-26T11:20:53;5.00;83.90
49579;DHT22;35483;50.828;3.228;2023-02-26T11:23:21;5.00;81.50
49579;DHT22;35483;50.828;3.228;2023-02-26T11:25:59;5.00;82.60
49579;DHT22;35483;50.828;3.228;2023-02-26T11:28:42;5.10;77.30
49579;DHT22;35483;50.828;3.228;2023-02-26T11:31:11;5.20;83.20
49579;DHT22;35483;50.828;3.228;2023-02-26T11:33:48;5.20;79.30
49579;DHT22;35483;50.828;3.228;2023-02-26T11:36:18;5.20;78.90
49579;DHT22;35483;50.828;3.228;2023-02-26T11:38:48;5.30;80.90
49579;DHT22;35483;50.828;3.228;2023-02-26T11:41:17;5.30;80.20
49579;DHT22;35483;50.828;3.228;2023-02-26T11:43:47;5.30;82.00
49579;DHT22;35483;50.828;3.228;2023-02-26T11:46:15;5.30;77.60
49579;DHT22;35483;50.828;3.228;2023-02-26T11:48:46;5.30;79.00
49579;DHT22;35483;50.828;3.228;2023-02-26T11:51:18;5.40;80.30
49579;DHT22;35483;50.828;3.228;2023-02-26T11:53:59;5.40;76.80
49579;DHT22;35483;50.828;3.228;2023-02-26T11:56:41;5.40;74.90
49579;DHT22;35483;50.828;3.228;2023-02-26T11:59:30;5.40;73.10
49579;DHT22;35483;50.828;3.228;2023-02-26T12:02:04;5.50;79.90
49579;DHT22;35483;50.828;3.228;2023-02-26T12:04:43;5.50;77.20
49579;DHT22;35483;50.828;3.228;2023-02-26T12:07:13;5.60;81.40
49579;DHT22;35483;50.828;3.228;2023-02-26T12:09:41;5.60;79.80
49579;DHT22;35483;50.828;3.228;2023-02-26T12:20:55;5.70;79.60
49579;DHT22;35483;50.828;3.228;2023-02-26T12:26:41;5.70;77.20
49579;DHT22;35483;50.828;3.228;2023-02-26T12:35:02;5.70;79.30
49579;DHT22;35483;50.828;3.228;2023-02-26T12:37:55;5.80;78.80
49579;DHT22;35483;50.828;3.228;2023-02-26T12:40:49;5.80;67.50
49579;DHT22;35483;50.828;3.228;2023-02-26T12:43:36;5.80;77.50
49579;DHT22;35483;50.828;3.228;2023-02-26T12:46:34;5.80;76.30
49579;DHT22;35483;50.828;3.228;2023-02-26T12:49:24;5.80;67.10
49579;DHT22;35483;50.828;3.228;2023-02-26T12:54:43;5.80;79.30
49579;DHT22;35483;50.828;3.228;2023-02-26T13:12:04;6.00;74.50
49579;DHT22;35483;50.828;3.228;2023-02-26T13:17:38;6.00;80.20
49579;DHT22;35483;50.828;3.228;2023-02-26T13:20:14;5.90;67.90
49579;DHT22;35483;50.828;3.228;2023-02-26T13:23:13;6.00;78.90
49579;DHT22;35483;50.828;3.228;2023-02-26T13:25:50;6.00;68.30
49579;DHT22;35483;50.828;3.228;2023-02-26T13:28:38;6.00;77.60
49579;DHT22;35483;50.828;3.228;2023-02-26T13:31:40;6.00;64.80
49579;DHT22;35483;50.828;3.228;2023-02-26T13:35:04;6.00;69.00
49579;DHT22;35483;50.828;3.228;2023-02-26T13:37:04;6.00;74.90
49579;DHT22;35483;50.828;3.228;2023-02-26T13:42:50;6.10;78.80
49579;DHT22;35483;50.828;3.228;2023-02-26T13:50:48;6.10;75.70
49579;DHT22;35483;50.828;3.228;2023-02-26T13:55:51;6.10;75.20
49579;DHT22;35483;50.828;3.228;2023-02-26T13:58:32;6.10;78.00
49579;DHT22;35483;50.828;3.228;2023-02-26T14:01:19;6.00;75.90
49579;DHT22;35483;50.828;3.228;2023-02-26T14:17:50;6.10;74.30
49579;DHT22;35483;50.828;3.228;2023-02-26T14:20:22;6.10;76.10
49579;DHT22;35483;50.828;3.228;2023-02-26T14:23:11;6.20;72.50
49579;DHT22;35483;50.828;3.228;2023-02-26T14:25:48;6.20;70.80
49579;DHT22;35483;50.828;3.228;2023-02-26T14:31:19;6.00;76.40
49579;DHT22;35483;50.828;3.228;2023-02-26T14:34:42;6.10;75.00
49579;DHT22;35483;50.828;3.228;2023-02-26T14:37:00;6.10;72.90
49579;DHT22;35483;50.828;3.228;2023-02-26T14:39:33;6.00;66.80
49579;DHT22;35483;50.828;3.228;2023-02-26T14:42:06;6.00;73.90
49579;DHT22;35483;50.828;3.228;2023-02-26T14:44:51;6.00;71.10
49579;DHT22;35483;50.828;3.228;2023-02-26T14:47:18;6.00;67.40
49579;DHT22;35483;50.828;3.228;2023-02-26T14:49:45;5.90;66.30
49579;DHT22;35483;50.828;3.228;2023-02-26T14:58:49;6.10;73.20
49579;DHT22;35483;50.828;3.228;2023-02-26T15:09:28;6.10;73.80
49579;DHT22;35483;50.828;3.228;2023-02-26T15:12:03;6.10;77.60
49579;DHT22;35483;50.828;3.228;2023-02-26T15:20:49;6.10;73.10
49579;DHT22;35483;50.828;3.228;2023-02-26T15:25:59;6.10;77.50
49579;DHT22;35483;50.828;3.228;2023-02-26T15:28:35;6.10;73.40
49579;DHT22;35483;50.828;3.228;2023-02-26T15:31:03;6.10;77.80
49579;DHT22;35483;50.828;3.228;2023-02-26T15:33:31;6.00;77.70
49579;DHT22;35483;50.828;3.228;2023-02-26T15:36:00;6.10;77.10
49579;DHT22;35483;50.828;3.228;2023-02-26T15:38:27;6.10;74.40
49579;DHT22;35483;50.828;3.228;2023-02-26T15:40:57;6.10;77.10
49579;DHT22;35483;50.828;3.228;2023-02-26T15:43:27;6.10;77.90
49579;DHT22;35483;50.828;3.228;2023-02-26T15:45:56;6.20;78.30
49579;DHT22;35483;50.828;3.228;2023-02-26T15:48:31;6.20;78.60
49579;DHT22;35483;50.828;3.228;2023-02-26T15:51:03;6.20;74.00
49579;DHT22;35483;50.828;3.228;2023-02-26T15:53:42;6.10;77.20
49579;DHT22;35483;50.828;3.228;2023-02-26T15:56:31;6.20;72.90
49579;DHT22;35483;50.828;3.228;2023-02-26T15:59:11;6.20;79.40
49579;DHT22;35483;50.828;3.228;2023-02-26T16:01:41;6.10;79.00
49579;DHT22;35483;50.828;3.228;2023-02-26T16:04:14;6.10;74.90
49579;DHT22;35483;50.828;3.228;2023-02-26T16:06:46;6.10;78.40
49579;DHT22;35483;50.828;3.228;2023-02-26T16:09:26;6.00;74.30
49579;DHT22;35483;50.828;3.228;2023-02-26T16:11:54;6.00;78.70
49579;DHT22;35483;50.828;3.228;2023-02-26T16:14:25;6.00;78.90
49579;DHT22;35483;50.828;3.228;2023-02-26T16:16:54;6.00;78.60
49579;DHT22;35483;50.828;3.228;2023-02-26T16:21:55;5.90;77.70
49579;DHT22;35483;50.828;3.228;2023-02-26T16:24:22;5.90;78.40
49579;DHT22;35483;50.828;3.228;2023-02-26T16:26:57;5.90;77.70
49579;DHT22;35483;50.828;3.228;2023-02-26T16:29:28;5.90;78.40
49579;DHT22;35483;50.828;3.228;2023-02-26T16:31:57;5.90;78.60
49579;DHT22;35483;50.828;3.228;2023-02-26T16:34:42;5.80;77.00
49579;DHT22;35483;50.828;3.228;2023-02-26T16:39:57;5.80;78.20
49579;DHT22;35483;50.828;3.228;2023-02-26T16:48:03;5.60;78.20
49579;DHT22;35483;50.828;3.228;2023-02-26T16:50:32;5.60;78.60
49579;DHT22;35483;50.828;3.228;2023-02-26T16:53:18;5.50;77.30
49579;DHT22;35483;50.828;3.228;2023-02-26T16:55:51;5.60;79.10
49579;DHT22;35483;50.828;3.228;2023-02-26T16:58:18;5.60;79.70
49579;DHT22;35483;50.828;3.228;2023-02-26T17:00:59;5.60;80.20
49579;DHT22;35483;50.828;3.228;2023-02-26T17:03:29;5.60;80.00
49579;DHT22;35483;50.828;3.228;2023-02-26T17:06:15;5.60;79.40
49579;DHT22;35483;50.828;3.228;2023-02-26T17:08:55;5.40;72.40
49579;DHT22;35483;50.828;3.228;2023-02-26T17:11:30;5.40;79.70
49579;DHT22;35483;50.828;3.228;2023-02-26T17:16:43;5.30;78.80
49579;DHT22;35483;50.828;3.228;2023-02-26T17:19:09;5.30;79.20
49579;DHT22;35483;50.828;3.228;2023-02-26T17:21:42;5.20;81.20
49579;DHT22;35483;50.828;3.228;2023-02-26T17:24:16;5.10;80.00
49579;DHT22;35483;50.828;3.228;2023-02-26T17:26:44;5.10;81.20
49579;DHT22;35483;50.828;3.228;2023-02-26T17:29:30;5.10;81.60
49579;DHT22;35483;50.828;3.228;2023-02-26T17:31:59;5.10;79.00
49579;DHT22;35483;50.828;3.228;2023-02-26T17:34:28;5.00;81.10
49579;DHT22;35483;50.828;3.228;2023-02-26T17:36:57;4.90;81.00
49579;DHT22;35483;50.828;3.228;2023-02-26T17:39:24;4.90;80.10
49579;DHT22;35483;50.828;3.228;2023-02-26T17:41:50;4.90;82.30
49579;DHT22;35483;50.828;3.228;2023-02-26T17:44:15;4.90;82.30
49579;DHT22;35483;50.828;3.228;2023-02-26T17:46:41;4.80;82.20
49579;DHT22;35483;50.828;3.228;2023-02-26T17:49:08;4.80;82.60
49579;DHT22;35483;50.828;3.228;2023-02-26T17:51:35;4.70;82.40
49579;DHT22;35483;50.828;3.228;2023-02-26T17:54:02;4.70;82.30
49579;DHT22;35483;50.828;3.228;2023-02-26T17:56:29;4.60;82.60
49579;DHT22;35483;50.828;3.228;2023-02-26T17:58:56;4.60;82.60
49579;DHT22;35483;50.828;3.228;2023-02-26T18:01:23;4.60;83.00
49579;DHT22;35483;50.828;3.228;2023-02-26T18:03:50;4.60;83.30
49579;DHT22;35483;50.828;3.228;2023-02-26T18:06:18;4.60;83.20
49579;DHT22;35483;50.828;3.228;2023-02-26T18:08:45;4.60;82.90
49579;DHT22;35483;50.828;3.228;2023-02-26T18:11:15;4.50;83.00
49579;DHT22;35483;50.828;3.228;2023-02-26T18:13:42;4.50;83.30
49579;DHT22;35483;50.828;3.228;2023-02-26T18:16:18;4.50;83.10
49579;DHT22;35483;50.828;3.228;2023-02-26T18:18:44;4.50;83.10
49579;DHT22;35483;50.828;3.228;2023-02-26T18:21:11;4.40;82.90
49579;DHT22;35483;50.828;3.228;2023-02-26T18:23:40;4.40;83.80
49579;DHT22;35483;50.828;3.228;2023-02-26T18:26:06;4.40;83.50
49579;DHT22;35483;50.828;3.228;2023-02-26T18:28:33;4.30;83.70
49579;DHT22;35483;50.828;3.228;2023-02-26T18:30:59;4.30;83.80
49579;DHT22;35483;50.828;3.228;2023-02-26T18:33:26;4.30;83.80
49579;DHT22;35483;50.828;3.228;2023-02-26T18:35:55;4.30;83.80
49579;DHT22;35483;50.828;3.228;2023-02-26T18:38:27;4.30;83.80
49579;DHT22;35483;50.828;3.228;2023-02-26T18:40:53;4.30;83.90
49579;DHT22;35483;50.828;3.228;2023-02-26T18:43:19;4.20;84.00
49579;DHT22;35483;50.828;3.228;2023-02-26T18:45:49;4.20;84.10
49579;DHT22;35483;50.828;3.228;2023-02-26T18:48:17;4.20;84.60
49579;DHT22;35483;50.828;3.228;2023-02-26T18:50:45;4.10;84.40